createdAt,value
2022-09-04T00:02:26.045Z,13.66
2022-09-04T00:05:07.915Z,13.61
2022-09-04T00:07:58.030Z,13.59
2022-09-04T00:10:30.529Z,13.56
2022-09-04T00:13:28.377Z,13.53
2022-09-04T00:16:09.758Z,13.48
2022-09-04T00:18:58.117Z,13.43
2022-09-04T00:21:31.524Z,13.39
2022-09-04T00:24:05.392Z,13.35
2022-09-04T00:26:46.297Z,13.31
2022-09-04T00:29:59.736Z,13.26
2022-09-04T00:32:45.530Z,13.21
2022-09-04T00:35:34.484Z,13.16
2022-09-04T00:38:26.833Z,13.12
2022-09-04T00:41:10.245Z,13.07
2022-09-04T00:44:02.075Z,13.03
2022-09-04T00:46:49.201Z,12.98
2022-09-04T00:49:37.579Z,12.92
2022-09-04T00:52:21.398Z,12.87
2022-09-04T00:55:28.784Z,12.83
2022-09-04T00:58:16.307Z,12.77
2022-09-04T01:00:47.648Z,12.70
2022-09-04T01:03:24.951Z,12.64
2022-09-04T01:06:23.128Z,12.59
2022-09-04T01:08:56.733Z,12.55
2022-09-04T01:11:52.962Z,12.53
2022-09-04T01:14:43.258Z,12.53
2022-09-04T01:17:42.251Z,12.51
2022-09-04T01:20:38.903Z,12.49
2022-09-04T01:23:45.573Z,12.45
2022-09-04T01:26:34.832Z,12.43
2022-09-04T01:29:40.701Z,12.39
2022-09-04T01:32:13.388Z,12.34
2022-09-04T01:35:02.742Z,12.31
2022-09-04T01:37:59.897Z,12.26
2022-09-04T01:40:37.709Z,12.22
2022-09-04T01:43:21.734Z,12.16
2022-09-04T01:46:02.560Z,12.10
2022-09-04T01:48:42.302Z,12.04
2022-09-04T01:51:19.564Z,11.97
2022-09-04T01:54:01.892Z,11.90
2022-09-04T01:56:52.877Z,11.88
2022-09-04T01:59:33.428Z,11.86
2022-09-04T02:02:14.165Z,11.85
2022-09-04T02:04:48.748Z,11.84
2022-09-04T02:07:50.295Z,11.81
2022-09-04T02:10:39.543Z,11.78
2022-09-04T02:13:17.862Z,11.75
2022-09-04T02:15:59.375Z,11.74
2022-09-04T02:18:37.302Z,11.72
2022-09-04T02:21:14.241Z,11.70
2022-09-04T02:24:03.397Z,11.65
2022-09-04T02:26:53.695Z,11.58
2022-09-04T02:29:47.370Z,11.52
2022-09-04T02:32:26.181Z,11.49
2022-09-04T02:35:27.652Z,11.46
2022-09-04T02:38:33.722Z,11.45
2022-09-04T02:41:27.161Z,11.45
2022-09-04T02:44:17.375Z,11.40
2022-09-04T02:47:06.020Z,11.38
2022-09-04T02:49:51.719Z,11.33
2022-09-04T02:52:43.249Z,11.26
2022-09-04T02:55:31.272Z,11.16
2022-09-04T02:58:33.043Z,11.08
2022-09-04T03:01:26.223Z,11.00
2022-09-04T03:04:05.840Z,10.94
2022-09-04T03:06:51.853Z,10.91
2022-09-04T03:09:42.956Z,10.89
2022-09-04T03:12:37.539Z,10.83
2022-09-04T03:15:09.506Z,10.81
2022-09-04T03:17:58.972Z,10.78
2022-09-04T03:20:37.224Z,10.71
2022-09-04T03:23:30.244Z,10.65
2022-09-04T03:26:19.003Z,10.59
2022-09-04T03:29:17.523Z,10.51
2022-09-04T03:32:15.481Z,10.56
2022-09-04T03:35:16.404Z,10.44
2022-09-04T03:38:01.989Z,10.37
2022-09-04T03:40:51.417Z,10.30
2022-09-04T03:43:50.241Z,10.24
2022-09-04T03:46:37.404Z,10.16
2022-09-04T03:49:09.426Z,10.09
2022-09-04T03:52:03.303Z,10.02
2022-09-04T03:54:43.462Z,9.97
2022-09-04T03:57:20.703Z,9.92
2022-09-04T04:00:16.113Z,9.89
2022-09-04T04:03:00.151Z,9.83
2022-09-04T04:05:40.804Z,9.77
2022-09-04T04:08:45.379Z,9.72
2022-09-04T04:11:43.295Z,9.69
2022-09-04T04:14:21.797Z,9.67
2022-09-04T04:17:12.609Z,9.61
2022-09-04T04:19:50.210Z,9.59
2022-09-04T04:22:41.120Z,9.58
2022-09-04T04:25:34.256Z,9.60
2022-09-04T04:28:28.139Z,9.56
2022-09-04T04:31:14.744Z,9.53
2022-09-04T04:34:18.974Z,9.51
2022-09-04T04:37:20.265Z,9.49
2022-09-04T04:40:03.349Z,9.46
2022-09-04T04:42:41.440Z,9.44
2022-09-04T04:45:51.820Z,9.44
2022-09-04T04:48:44.665Z,9.49
2022-09-04T04:51:41.715Z,9.51
2022-09-04T04:54:32.575Z,9.55
2022-09-04T04:57:36.526Z,9.62
2022-09-04T05:00:52.217Z,9.63
2022-09-04T05:03:54.592Z,9.68
2022-09-04T05:06:52.894Z,9.71
2022-09-04T05:09:48.621Z,9.76
2022-09-04T05:12:54.710Z,9.84
2022-09-04T05:16:07.488Z,9.91
2022-09-04T05:19:14.876Z,10.02
2022-09-04T05:22:10.096Z,10.14
2022-09-04T05:25:01.227Z,10.19
2022-09-04T05:27:45.816Z,10.30
2022-09-04T05:30:28.982Z,10.44
2022-09-04T05:33:33.366Z,10.56
2022-09-04T05:37:12.701Z,10.70
2022-09-04T05:39:55.734Z,10.85
2022-09-04T05:42:39.570Z,10.96
2022-09-04T05:45:32.703Z,11.11
2022-09-04T05:48:26.380Z,11.26
2022-09-04T05:51:34.922Z,11.39
2022-09-04T05:54:05.916Z,11.53
2022-09-04T05:56:53.436Z,11.69
2022-09-04T06:00:04.821Z,11.83
2022-09-04T06:02:47.366Z,12.00
2022-09-04T06:05:45.627Z,12.12
2022-09-04T06:08:41.608Z,12.24
2022-09-04T06:11:29.171Z,12.37
2022-09-04T06:14:25.812Z,12.49
2022-09-04T06:17:13.111Z,12.66
2022-09-04T06:20:09.022Z,12.80
2022-09-04T06:22:55.559Z,12.94
2022-09-04T06:25:47.200Z,13.03
2022-09-04T06:28:34.823Z,13.10
2022-09-04T06:31:09.882Z,13.19
2022-09-04T06:33:58.302Z,13.29
2022-09-04T06:36:57.614Z,13.41
2022-09-04T06:39:32.590Z,13.50
2022-09-04T06:42:01.845Z,13.60
2022-09-04T06:45:22.149Z,13.73
2022-09-04T06:47:58.412Z,13.86
2022-09-04T06:50:53.715Z,14.02
2022-09-04T06:53:39.079Z,14.22
2022-09-04T06:56:18.227Z,14.41
2022-09-04T06:59:26.426Z,14.58
2022-09-04T07:02:20.493Z,14.74
2022-09-04T07:04:55.862Z,14.91
2022-09-04T07:07:27.518Z,15.07
2022-09-04T07:10:11.156Z,15.20
2022-09-04T07:13:18.642Z,15.37
2022-09-04T07:15:57.311Z,15.56
2022-09-04T07:18:54.761Z,15.72
2022-09-04T07:22:05.800Z,15.89
2022-09-04T07:25:04.870Z,16.08
2022-09-04T07:28:02.235Z,16.23
2022-09-04T07:30:54.101Z,16.41
2022-09-04T07:33:46.620Z,16.57
2022-09-04T07:36:29.701Z,16.73
2022-09-04T07:39:15.365Z,16.91
2022-09-04T07:42:00.651Z,17.09
2022-09-04T07:45:01.471Z,17.24
2022-09-04T07:47:50.747Z,17.41
2022-09-04T07:50:37.238Z,17.54
2022-09-04T07:53:23.232Z,17.68
2022-09-04T07:56:11.787Z,17.77
2022-09-04T07:59:21.950Z,17.89
2022-09-04T08:02:04.663Z,18.03
2022-09-04T08:04:53.186Z,18.11
2022-09-04T08:07:35.618Z,18.23
2022-09-04T08:10:05.029Z,18.35
2022-09-04T08:13:11.126Z,18.50
2022-09-04T08:15:53.955Z,18.66
2022-09-04T08:18:37.961Z,18.77
2022-09-04T08:21:27.981Z,18.87
2022-09-04T08:24:11.992Z,18.97
2022-09-04T08:27:27.778Z,19.04
2022-09-04T08:30:14.505Z,19.11
2022-09-04T08:33:11.264Z,19.24
2022-09-04T08:36:18.119Z,19.37
2022-09-04T08:38:57.136Z,19.48
2022-09-04T08:41:49.377Z,19.59
2022-09-04T08:44:21.136Z,19.67
2022-09-04T08:47:40.232Z,19.66
2022-09-04T08:50:24.085Z,19.73
2022-09-04T08:53:29.792Z,19.79
2022-09-04T08:56:22.330Z,19.90
2022-09-04T08:59:02.686Z,19.91
2022-09-04T09:01:53.496Z,19.96
2022-09-04T09:04:44.702Z,19.94
2022-09-04T09:07:31.581Z,19.95
2022-09-04T09:10:37.629Z,19.99
2022-09-04T09:13:43.126Z,20.08
2022-09-04T09:16:20.450Z,20.20
2022-09-04T09:19:16.420Z,20.31
2022-09-04T09:22:03.612Z,20.40
2022-09-04T09:25:07.834Z,20.51
2022-09-04T09:28:00.744Z,20.51
2022-09-04T09:30:47.471Z,20.52
2022-09-04T09:33:37.488Z,20.47
2022-09-04T09:36:40.915Z,20.46
2022-09-04T09:39:10.414Z,20.45
2022-09-04T09:42:06.600Z,20.50
2022-09-04T09:44:54.935Z,20.67
2022-09-04T09:47:51.025Z,20.78
2022-09-04T09:50:28.595Z,20.85
2022-09-04T09:53:22.217Z,20.83
2022-09-04T09:55:57.767Z,20.93
2022-09-04T09:59:15.446Z,21.05
2022-09-04T10:02:21.503Z,21.08
2022-09-04T10:05:19.100Z,20.99
2022-09-04T10:07:50.781Z,21.06
2022-09-04T10:10:49.840Z,21.18
2022-09-04T10:13:37.339Z,21.28
2022-09-04T10:16:32.496Z,21.28
2022-09-04T10:19:12.083Z,21.31
2022-09-04T10:22:18.280Z,21.42
2022-09-04T10:25:07.744Z,21.43
2022-09-04T10:28:11.980Z,21.43
2022-09-04T10:31:17.142Z,21.48
2022-09-04T10:33:45.471Z,21.55
2022-09-04T10:36:28.050Z,21.59
2022-09-04T10:39:37.406Z,21.68
2022-09-04T10:42:39.213Z,21.92
2022-09-04T10:45:27.901Z,22.12
2022-09-04T10:48:28.493Z,22.10
2022-09-04T10:50:57.803Z,22.11
2022-09-04T10:53:53.577Z,22.24
2022-09-04T10:56:35.973Z,22.27
2022-09-04T10:59:31.817Z,22.31
2022-09-04T11:02:18.570Z,22.31
2022-09-04T11:05:19.300Z,22.35
2022-09-04T11:08:29.322Z,22.42
2022-09-04T11:11:18.275Z,22.47
2022-09-04T11:14:07.070Z,22.54
2022-09-04T11:16:51.353Z,22.65
2022-09-04T11:19:44.672Z,22.74
2022-09-04T11:22:35.654Z,22.80
2022-09-04T11:25:25.622Z,22.84
2022-09-04T11:28:21.032Z,22.85
2022-09-04T11:31:11.270Z,22.85
2022-09-04T11:33:42.698Z,22.96
2022-09-04T11:36:20.000Z,23.09
2022-09-04T11:39:16.713Z,23.24
2022-09-04T11:42:21.241Z,23.34
2022-09-04T11:45:08.551Z,23.37
2022-09-04T11:47:57.272Z,23.56
2022-09-04T11:51:02.134Z,23.82
2022-09-04T11:53:49.202Z,23.85
2022-09-04T11:56:45.972Z,23.75
2022-09-04T11:59:23.730Z,23.76
2022-09-04T12:02:31.709Z,23.86
2022-09-04T12:05:09.247Z,23.75
2022-09-04T12:08:03.859Z,23.67
2022-09-04T12:10:46.467Z,23.54
2022-09-04T12:13:40.814Z,23.42
2022-09-04T12:16:33.592Z,23.33
2022-09-04T12:19:47.582Z,23.12
2022-09-04T12:22:46.250Z,23.09
2022-09-04T12:25:38.062Z,23.02
2022-09-04T12:28:40.603Z,22.96
2022-09-04T12:31:21.439Z,22.96
2022-09-04T12:34:21.159Z,22.87
2022-09-04T12:37:20.212Z,22.79
2022-09-04T12:39:57.740Z,22.91
2022-09-04T12:42:36.624Z,22.97
2022-09-04T12:45:13.670Z,23.07
2022-09-04T12:48:09.923Z,23.19
2022-09-04T12:50:48.099Z,23.29
2022-09-04T12:53:35.215Z,23.38
2022-09-04T12:56:10.519Z,23.56
2022-09-04T12:58:44.938Z,23.73
2022-09-04T13:01:23.176Z,23.85
2022-09-04T13:04:22.057Z,23.93
2022-09-04T13:07:24.563Z,24.02
2022-09-04T13:10:03.013Z,24.14
2022-09-04T13:12:49.432Z,24.17
2022-09-04T13:15:38.371Z,24.20
2022-09-04T13:18:21.541Z,24.09
2022-09-04T13:21:13.907Z,24.14
2022-09-04T13:23:51.451Z,24.24
2022-09-04T13:26:30.513Z,24.36
2022-09-04T13:29:29.925Z,24.43
2022-09-04T13:32:23.243Z,24.47
2022-09-04T13:35:28.288Z,24.57
2022-09-04T13:37:59.786Z,24.61
2022-09-04T13:40:47.015Z,24.65
2022-09-04T13:43:33.427Z,24.56
2022-09-04T13:46:12.146Z,24.36
2022-09-04T13:48:47.945Z,24.36
2022-09-04T13:51:31.167Z,24.35
2022-09-04T13:54:11.753Z,24.43
2022-09-04T13:56:51.238Z,24.48
2022-09-04T13:59:22.142Z,24.56
2022-09-04T14:01:55.065Z,24.63
2022-09-04T14:04:36.871Z,24.62
2022-09-04T14:07:17.652Z,24.66
2022-09-04T14:09:50.926Z,24.59
2022-09-04T14:12:35.785Z,24.51
2022-09-04T14:15:19.727Z,24.37
2022-09-04T14:17:54.976Z,24.22
2022-09-04T14:20:29.309Z,24.08
2022-09-04T14:23:10.245Z,24.04
2022-09-04T14:26:02.659Z,24.08
2022-09-04T14:28:44.046Z,24.09
2022-09-04T14:31:38.425Z,24.03
2022-09-04T14:34:29.065Z,23.95
2022-09-04T14:37:08.810Z,23.96
2022-09-04T14:39:49.333Z,24.00
2022-09-04T14:42:42.886Z,24.05
2022-09-04T14:45:24.681Z,24.14
2022-09-04T14:48:00.178Z,24.21
2022-09-04T14:50:31.246Z,24.23
2022-09-04T14:53:08.822Z,24.17
2022-09-04T14:56:06.289Z,24.10
2022-09-04T14:58:41.481Z,23.95
2022-09-04T15:01:22.338Z,23.88
2022-09-04T15:04:23.210Z,23.84
2022-09-04T15:07:11.214Z,23.81
2022-09-04T15:09:48.585Z,23.68
2022-09-04T15:12:32.803Z,23.59
2022-09-04T15:15:20.477Z,23.55
2022-09-04T15:17:57.353Z,23.56
2022-09-04T15:20:31.121Z,23.57
2022-09-04T15:23:14.543Z,23.56
2022-09-04T15:25:59.746Z,23.69
2022-09-04T15:28:48.656Z,23.81
2022-09-04T15:31:21.933Z,23.83
2022-09-04T15:33:59.228Z,23.85
2022-09-04T15:36:28.061Z,23.78
2022-09-04T15:39:00.257Z,23.84
2022-09-04T15:41:50.188Z,23.80
2022-09-04T15:44:30.118Z,23.66
2022-09-04T15:47:23.621Z,23.41
2022-09-04T15:50:04.644Z,23.20
2022-09-04T15:52:42.416Z,23.01
2022-09-04T15:55:31.863Z,22.86
2022-09-04T15:58:11.395Z,22.70
2022-09-04T16:01:06.601Z,22.59
2022-09-04T16:03:47.639Z,22.50
2022-09-04T16:06:32.421Z,22.51
2022-09-04T16:09:03.841Z,22.53
2022-09-04T16:11:32.232Z,22.49
2022-09-04T16:14:08.858Z,22.45
2022-09-04T16:16:53.462Z,22.45
2022-09-04T16:19:34.080Z,22.51
2022-09-04T16:22:40.314Z,23.00
2022-09-04T16:25:13.022Z,25.25
2022-09-04T16:27:49.224Z,26.31
2022-09-04T16:30:47.268Z,27.33
2022-09-04T16:33:28.031Z,28.53
2022-09-04T16:36:17.824Z,28.85
2022-09-04T16:39:05.952Z,29.35
2022-09-04T16:41:45.140Z,29.40
2022-09-04T16:44:27.898Z,29.14
2022-09-04T16:47:17.952Z,29.60
2022-09-04T16:49:57.968Z,29.93
2022-09-04T16:52:34.697Z,30.22
2022-09-04T16:55:11.672Z,30.37
2022-09-04T16:58:07.636Z,30.52
2022-09-04T17:01:14.175Z,30.55
2022-09-04T17:03:43.146Z,30.28
2022-09-04T17:06:35.473Z,29.81
2022-09-04T17:09:28.404Z,28.83
2022-09-04T17:12:07.492Z,28.01
2022-09-04T17:14:43.624Z,27.13
2022-09-04T17:17:31.286Z,26.17
2022-09-04T17:20:20.776Z,25.35
2022-09-04T17:27:28.049Z,24.67
2022-09-04T17:29:04.063Z,24.04
2022-09-04T17:29:37.206Z,23.47
2022-09-04T17:39:52.888Z,22.81
2022-09-04T17:40:33.905Z,22.27
2022-09-04T17:41:33.310Z,21.88
2022-09-04T17:42:20.382Z,21.56
2022-09-04T17:45:02.458Z,21.28
2022-09-04T17:47:33.351Z,21.02
2022-09-04T17:50:02.650Z,20.74
2022-09-04T17:52:34.352Z,20.50
2022-09-04T17:55:13.833Z,20.25
2022-09-04T17:57:53.580Z,20.00
2022-09-04T18:00:34.729Z,19.80
2022-09-04T18:03:16.993Z,19.62
2022-09-04T18:05:53.570Z,19.42
2022-09-04T18:08:33.046Z,19.26
2022-09-04T18:11:20.145Z,19.11
2022-09-04T18:14:02.463Z,18.96
2022-09-04T18:16:37.088Z,18.81
2022-09-04T18:19:17.375Z,18.68
2022-09-04T18:22:25.557Z,18.53
2022-09-04T18:24:59.790Z,18.37
2022-09-04T18:28:11.600Z,18.21
2022-09-04T18:37:09.579Z,18.06
2022-09-04T18:37:27.101Z,17.90
2022-09-04T18:37:49.147Z,17.77
2022-09-04T18:44:25.875Z,17.63
2022-09-04T18:50:23.333Z,17.31
2022-09-04T18:50:25.800Z,17.51
2022-09-04T18:50:38.687Z,17.41
2022-09-04T18:52:23.196Z,17.21
2022-09-04T18:55:02.657Z,17.11
2022-09-04T18:57:32.711Z,17.01
2022-09-04T19:00:10.626Z,16.92
2022-09-04T19:02:54.040Z,16.81
2022-09-04T19:05:44.952Z,16.70
2022-09-04T19:08:24.009Z,16.57
2022-09-04T19:11:03.580Z,16.48
2022-09-04T19:14:09.868Z,16.37
2022-09-04T19:16:57.826Z,16.26
2022-09-04T19:19:58.868Z,16.15
2022-09-04T19:22:56.623Z,16.03
2022-09-04T19:25:41.030Z,15.91
2022-09-04T19:28:16.530Z,15.81
2022-09-04T19:30:55.411Z,15.71
2022-09-04T19:33:45.292Z,15.62
2022-09-04T19:36:13.781Z,15.51
2022-09-04T19:45:56.650Z,15.42
2022-09-04T19:46:07.887Z,15.31
2022-09-04T19:46:15.289Z,15.20
2022-09-04T19:48:19.244Z,15.12
2022-09-04T19:53:23.367Z,15.02
2022-09-04T19:54:12.189Z,14.94
2022-09-04T19:57:32.008Z,14.85
2022-09-04T20:00:31.143Z,14.76
2022-09-04T20:03:08.132Z,14.70
2022-09-04T20:05:40.234Z,14.63
2022-09-04T20:08:14.822Z,14.53
2022-09-04T20:11:01.831Z,14.47
2022-09-04T20:13:35.424Z,14.43
2022-09-04T20:16:25.247Z,14.40
2022-09-04T20:19:02.842Z,14.36
2022-09-04T20:21:49.423Z,14.31
2022-09-04T20:24:23.330Z,14.26
2022-09-04T20:27:00.437Z,14.21
2022-09-04T20:29:43.045Z,14.15
2022-09-04T20:32:11.706Z,14.10
2022-09-04T20:35:13.261Z,14.06
2022-09-04T20:37:48.950Z,14.04
2022-09-04T20:40:36.668Z,14.01
2022-09-04T20:43:27.152Z,14.02
2022-09-04T20:52:42.317Z,13.99
2022-09-04T20:52:57.196Z,13.95
2022-09-04T20:53:05.491Z,13.92
2022-09-04T20:55:59.089Z,13.89
2022-09-04T21:03:06.583Z,13.85
2022-09-04T21:03:17.137Z,13.81
2022-09-04T21:04:43.112Z,13.77
2022-09-04T21:07:27.294Z,13.71
2022-09-04T21:10:10.215Z,13.67
2022-09-04T21:13:14.347Z,13.60
2022-09-04T21:16:05.460Z,13.63
2022-09-04T21:18:40.199Z,13.65
2022-09-04T21:21:37.615Z,13.65
2022-09-04T21:24:15.261Z,13.67
2022-09-04T21:26:52.555Z,13.70
2022-09-04T21:29:30.135Z,13.68
2022-09-04T21:32:26.275Z,13.67
2022-09-04T21:35:18.925Z,13.64
2022-09-04T21:38:15.056Z,13.61
2022-09-04T21:40:51.367Z,13.60
2022-09-04T21:43:45.715Z,13.56
2022-09-04T21:46:48.596Z,13.52
2022-09-04T21:49:26.302Z,13.48
2022-09-04T21:52:10.346Z,13.47
2022-09-04T21:57:49.083Z,13.46
2022-09-04T22:02:28.327Z,13.42
2022-09-04T22:02:38.113Z,13.38
2022-09-04T22:04:44.978Z,13.35
2022-09-04T22:12:13.063Z,13.29
2022-09-04T22:13:32.170Z,13.24
2022-09-04T22:13:54.694Z,13.20
2022-09-04T22:17:03.691Z,13.16
2022-09-04T22:19:38.009Z,13.08
2022-09-04T22:22:44.168Z,13.06
2022-09-04T22:25:28.521Z,13.04
2022-09-04T22:28:41.477Z,13.01
2022-09-04T22:31:45.210Z,12.93
2022-09-04T22:34:53.742Z,12.92
2022-09-04T22:37:35.334Z,12.86
2022-09-04T22:40:16.156Z,12.79
2022-09-04T22:42:56.864Z,12.77
2022-09-04T22:45:41.139Z,12.73
2022-09-04T22:48:31.817Z,12.68
2022-09-04T22:51:16.501Z,12.64
2022-09-04T22:53:56.849Z,12.57
2022-09-04T22:57:03.107Z,12.52
2022-09-04T23:00:10.817Z,12.48
2022-09-04T23:03:33.306Z,12.44
2022-09-04T23:07:47.063Z,12.41
2022-09-04T23:13:52.626Z,12.28
2022-09-04T23:13:54.382Z,12.37
2022-09-04T23:15:32.637Z,12.26
2022-09-04T23:20:46.812Z,12.22
2022-09-04T23:26:33.725Z,12.17
2022-09-04T23:26:45.336Z,12.11
2022-09-04T23:27:52.375Z,12.07
2022-09-04T23:30:25.646Z,12.04
2022-09-04T23:32:59.488Z,11.98
2022-09-04T23:36:14.862Z,11.97
2022-09-04T23:39:38.173Z,11.90
2022-09-04T23:42:59.247Z,11.86
2022-09-04T23:46:08.954Z,11.84
2022-09-04T23:49:39.737Z,11.82
2022-09-04T23:52:53.071Z,11.78
2022-09-04T23:56:07.434Z,11.73
2022-09-04T23:59:32.127Z,11.65
